Roulo, Michigan
Current Conditions -  °F | °C
As of 4:49 PM on Friday 28 Nov 2014 (Local Time) from KYIP Reporting Station
Light Snow Light Snow  
Wind Chill: 20°   Ceiling: 4000
Heat Index: 28°   Visibility: 3mi
Dew Point: 19°   Wind: 9mph
Humidity: 69%   Direction: 180°S
Pressure: 30.18"   Gusts: NA
Location:  42.1781°N, 83.4854°W
Report Text: KYIP 282149Z 18008KT 3SM -SN BKN040 OVC050 M02/M07 A3018 RMK AO2 SNB12 P0000
Loading
Personal Weather Stations






























Interactive Weather Map New forecast layout! Learn more

10-Day Weather Forecast

Advertisements
Track Severe Weather on mobile